createdAt,value
2018-07-17T00:02:26.956Z,85.05
2018-07-17T00:04:56.848Z,84.94
2018-07-17T00:07:26.541Z,85.68
2018-07-17T00:09:56.421Z,85.75
2018-07-17T00:12:26.117Z,85.71
2018-07-17T00:14:56.071Z,85.60
2018-07-17T00:17:25.938Z,85.59
2018-07-17T00:19:55.799Z,85.51
2018-07-17T00:22:25.695Z,85.60
2018-07-17T00:24:55.533Z,86.72
2018-07-17T00:27:25.199Z,86.15
2018-07-17T00:29:55.124Z,85.93
2018-07-17T00:32:24.894Z,86.38
2018-07-17T00:34:54.835Z,87.21
2018-07-17T00:37:24.453Z,87.54
2018-07-17T00:39:54.435Z,86.98
2018-07-17T00:42:24.162Z,87.10
2018-07-17T00:44:54.040Z,87.04
2018-07-17T00:47:23.887Z,87.48
2018-07-17T00:49:53.737Z,87.13
2018-07-17T00:52:23.793Z,86.67
2018-07-17T00:54:53.580Z,87.23
2018-07-17T00:57:23.611Z,86.00
2018-07-17T00:59:53.443Z,87.15
2018-07-17T01:02:28.220Z,87.28
2018-07-17T01:05:03.115Z,86.25
2018-07-17T01:07:37.477Z,86.27
2018-07-17T01:10:12.365Z,86.70
2018-07-17T01:12:41.085Z,86.50
2018-07-17T01:15:15.947Z,87.64
2018-07-17T01:17:46.505Z,87.08
2018-07-17T01:20:16.314Z,86.56
2018-07-17T01:22:46.155Z,86.90
2018-07-17T01:25:16.007Z,86.25
2018-07-17T01:27:45.762Z,86.32
2018-07-17T01:30:15.554Z,86.85
2018-07-17T01:32:45.335Z,86.10
2018-07-17T01:35:15.199Z,86.15
2018-07-17T01:37:45.042Z,86.03
2018-07-17T01:40:15.166Z,86.05
2018-07-17T01:42:44.880Z,86.96
2018-07-17T01:45:14.680Z,87.04
2018-07-17T01:47:44.412Z,86.70
2018-07-17T01:50:14.243Z,87.23
2018-07-17T01:52:43.926Z,86.81
2018-07-17T01:55:13.762Z,86.83
2018-07-17T01:57:43.414Z,86.94
2018-07-17T02:00:13.214Z,87.28
2018-07-17T02:02:42.984Z,87.53
2018-07-17T02:05:14.008Z,87.85
2018-07-17T02:07:43.748Z,88.07
2018-07-17T02:10:13.539Z,88.00
2018-07-17T02:12:43.286Z,88.00
2018-07-17T02:15:13.088Z,88.17
2018-07-17T02:17:42.888Z,88.20
2018-07-17T02:20:12.867Z,88.22
2018-07-17T02:22:42.545Z,87.50
2018-07-17T02:25:12.685Z,87.49
2018-07-17T02:27:42.480Z,88.67
2018-07-17T02:30:12.412Z,87.98
2018-07-17T02:32:42.218Z,88.21
2018-07-17T02:35:12.082Z,88.65
2018-07-17T02:37:41.861Z,88.75
2018-07-17T02:40:11.656Z,88.90
2018-07-17T02:42:41.377Z,88.01
2018-07-17T02:45:11.449Z,87.67
2018-07-17T02:47:41.156Z,88.29
2018-07-17T02:50:11.216Z,88.39
2018-07-17T02:52:40.923Z,88.24
2018-07-17T02:55:10.794Z,88.20
2018-07-17T02:57:40.579Z,88.56
2018-07-17T03:00:10.393Z,88.83
2018-07-17T03:02:40.217Z,88.72
2018-07-17T03:05:10.180Z,88.49
2018-07-17T03:07:40.075Z,88.59
2018-07-17T03:10:09.881Z,88.38
2018-07-17T03:12:39.769Z,88.36
2018-07-17T03:15:09.674Z,88.66
2018-07-17T03:17:39.534Z,88.96
2018-07-17T03:20:09.413Z,88.99
2018-07-17T03:22:39.176Z,88.81
2018-07-17T03:25:09.234Z,88.84
2018-07-17T03:27:38.962Z,88.83
2018-07-17T03:30:08.777Z,89.14
2018-07-17T03:32:38.537Z,89.13
2018-07-17T03:35:08.590Z,89.44
2018-07-17T03:37:38.468Z,89.43
2018-07-17T03:40:08.696Z,89.02
2018-07-17T03:42:38.502Z,88.67
2018-07-17T03:45:08.414Z,88.87
2018-07-17T03:47:38.150Z,89.15
2018-07-17T03:50:08.109Z,89.08
2018-07-17T03:52:37.838Z,89.16
2018-07-17T03:55:08.395Z,89.34
2018-07-17T03:57:38.026Z,89.23
2018-07-17T04:00:08.111Z,89.17
2018-07-17T04:02:37.783Z,89.11
2018-07-17T04:05:07.724Z,88.80
2018-07-17T04:07:37.380Z,88.61
2018-07-17T04:10:07.428Z,88.77
2018-07-17T04:12:37.183Z,88.90
2018-07-17T04:15:07.153Z,87.80
2018-07-17T04:17:37.015Z,87.50
2018-07-17T04:20:06.820Z,86.49
2018-07-17T04:22:36.498Z,86.22
2018-07-17T04:25:06.700Z,85.83
2018-07-17T04:27:36.496Z,85.07
2018-07-17T04:30:06.501Z,85.44
2018-07-17T04:32:36.276Z,85.70
2018-07-17T04:35:06.259Z,85.85
2018-07-17T04:37:36.079Z,84.29
2018-07-17T04:40:06.514Z,85.41
2018-07-17T04:42:36.291Z,85.77
2018-07-17T04:45:06.165Z,86.04
2018-07-17T04:47:35.997Z,86.25
2018-07-17T04:50:05.847Z,86.22
2018-07-17T04:52:35.638Z,86.34
2018-07-17T04:55:05.775Z,86.24
2018-07-17T04:57:35.522Z,85.82
2018-07-17T05:00:05.619Z,84.77
2018-07-17T05:02:35.320Z,83.81
2018-07-17T05:05:05.741Z,85.25
2018-07-17T05:07:35.451Z,82.19
2018-07-17T05:10:05.577Z,82.10
2018-07-17T05:12:35.512Z,83.39
2018-07-17T05:15:05.683Z,82.52
2018-07-17T05:17:35.351Z,82.39
2018-07-17T05:20:05.840Z,82.39
2018-07-17T05:22:35.542Z,82.71
2018-07-17T05:25:05.457Z,83.10
2018-07-17T05:27:35.427Z,82.81
2018-07-17T05:30:05.952Z,82.53
2018-07-17T05:32:35.817Z,82.62
2018-07-17T05:35:05.898Z,82.64
2018-07-17T05:37:35.736Z,82.43
2018-07-17T05:40:06.182Z,81.13
2018-07-17T05:42:35.915Z,81.24
2018-07-17T05:45:06.059Z,81.24
2018-07-17T05:47:39.906Z,79.93
2018-07-17T05:50:11.553Z,78.87
2018-07-17T05:52:41.676Z,77.53
2018-07-17T05:55:11.737Z,77.88
2018-07-17T05:57:41.506Z,78.39
2018-07-17T06:00:11.599Z,76.35
2018-07-17T06:02:41.363Z,77.73
2018-07-17T06:05:11.598Z,76.12
2018-07-17T06:07:41.310Z,76.79
2018-07-17T06:10:11.176Z,76.65
2018-07-17T06:12:41.239Z,76.54
2018-07-17T06:15:11.191Z,75.99
2018-07-17T06:17:41.278Z,74.24
2018-07-17T06:20:11.615Z,74.28
2018-07-17T06:22:41.516Z,73.88
2018-07-17T06:25:12.072Z,73.87
2018-07-17T06:27:42.159Z,74.19
2018-07-17T06:30:11.915Z,74.15
2018-07-17T06:32:41.697Z,74.92
2018-07-17T06:35:11.767Z,74.26
2018-07-17T06:37:41.605Z,74.12
2018-07-17T06:40:11.616Z,73.92
2018-07-17T06:42:41.695Z,73.37
2018-07-17T06:45:11.580Z,72.73
2018-07-17T06:47:41.312Z,73.92
2018-07-17T06:50:11.421Z,73.73
2018-07-17T06:52:41.398Z,74.19
2018-07-17T06:55:11.489Z,73.52
2018-07-17T06:57:41.540Z,72.35
2018-07-17T07:00:11.421Z,72.87
2018-07-17T07:02:41.163Z,73.13
2018-07-17T07:05:11.276Z,72.28
2018-07-17T07:07:41.933Z,70.89
2018-07-17T07:10:11.990Z,72.12
2018-07-17T07:12:41.880Z,71.23
2018-07-17T07:15:11.846Z,72.82
2018-07-17T07:17:41.628Z,72.74
2018-07-17T07:20:11.663Z,71.45
2018-07-17T07:22:42.210Z,70.01
2018-07-17T07:25:12.140Z,71.90
2018-07-17T07:27:41.824Z,71.41
2018-07-17T07:30:12.779Z,69.18
2018-07-17T07:32:42.629Z,70.21
2018-07-17T07:35:13.751Z,68.37
2018-07-17T07:37:43.758Z,67.90
2018-07-17T07:40:14.554Z,68.51
2018-07-17T07:42:44.585Z,68.09
2018-07-17T07:45:16.324Z,68.16
2018-07-17T07:47:46.314Z,67.57
2018-07-17T07:50:17.357Z,67.56
2018-07-17T07:52:47.795Z,66.82
2018-07-17T07:55:19.425Z,64.17
2018-07-17T07:57:49.859Z,65.36
2018-07-17T08:00:21.985Z,66.19
2018-07-17T08:02:51.801Z,63.75
2018-07-17T10:40:59.181Z,35.66
2018-07-17T10:43:29.166Z,40.92
2018-07-17T10:45:59.223Z,40.93
2018-07-17T10:48:29.395Z,39.91
2018-07-17T10:50:59.324Z,39.19
2018-07-17T10:53:29.477Z,38.60
2018-07-17T10:55:59.341Z,36.54
2018-07-17T10:58:29.164Z,38.63
2018-07-17T11:00:59.031Z,37.72
2018-07-17T11:03:28.953Z,37.88
2018-07-17T11:05:58.814Z,36.82
2018-07-17T11:08:28.600Z,39.62
2018-07-17T11:10:58.477Z,38.63
2018-07-17T11:13:28.396Z,37.14
2018-07-17T11:15:58.360Z,38.30
2018-07-17T11:18:28.260Z,37.57
2018-07-17T11:20:58.100Z,35.96
2018-07-17T11:23:27.975Z,36.99
2018-07-17T11:25:59.202Z,38.03
2018-07-17T11:28:29.317Z,38.61
2018-07-17T11:31:00.249Z,37.88
2018-07-17T11:33:30.010Z,41.34
2018-07-17T11:36:00.538Z,40.19
2018-07-17T11:38:30.351Z,39.65
2018-07-17T11:41:01.068Z,41.88
2018-07-17T11:43:31.285Z,38.64
2018-07-17T11:46:02.660Z,36.53
2018-07-17T11:48:32.426Z,38.64
2018-07-17T11:51:03.935Z,39.80
2018-07-17T11:53:33.598Z,46.81
2018-07-17T11:56:04.303Z,41.24
2018-07-17T11:58:34.074Z,39.26
2018-07-17T12:01:04.300Z,39.26
2018-07-17T12:03:34.123Z,39.96
2018-07-17T12:06:03.924Z,37.70
2018-07-17T12:08:33.703Z,37.63
2018-07-17T12:11:03.466Z,36.20
2018-07-17T12:13:33.548Z,35.32
2018-07-17T12:16:03.348Z,35.84
2018-07-17T12:18:33.124Z,35.40
2018-07-17T12:21:02.904Z,34.27
2018-07-17T12:23:32.921Z,36.01
2018-07-17T12:26:02.644Z,35.56
2018-07-17T12:28:32.407Z,40.90
2018-07-17T12:31:02.184Z,39.64
2018-07-17T12:33:31.970Z,37.23
2018-07-17T12:36:01.526Z,37.42
2018-07-17T12:38:31.480Z,38.81
2018-07-17T12:41:01.227Z,37.59
2018-07-17T12:43:31.056Z,36.71
2018-07-17T12:46:00.836Z,36.26
2018-07-17T12:48:30.834Z,34.51
2018-07-17T12:51:00.626Z,35.22
2018-07-17T12:53:30.641Z,36.04
2018-07-17T12:56:00.609Z,33.70
2018-07-17T12:58:30.530Z,34.13
2018-07-17T13:01:00.251Z,32.83
2018-07-17T13:03:30.416Z,37.49
2018-07-17T13:06:00.104Z,36.63
2018-07-17T13:08:29.950Z,34.80
2018-07-17T13:10:59.965Z,35.93
2018-07-17T13:13:29.854Z,33.50
2018-07-17T13:15:59.616Z,33.75
2018-07-17T13:18:29.539Z,33.94
2018-07-17T13:20:59.317Z,33.27
2018-07-17T13:23:29.259Z,34.35
2018-07-17T13:25:59.036Z,36.49
2018-07-17T13:28:28.796Z,34.17
2018-07-17T13:30:58.644Z,36.32
2018-07-17T13:33:28.693Z,36.14
2018-07-17T13:35:58.501Z,36.59
2018-07-17T13:38:28.317Z,34.87
2018-07-17T13:40:58.328Z,34.81
2018-07-17T13:43:28.181Z,36.33
2018-07-17T13:45:57.915Z,34.05
2018-07-17T13:48:27.680Z,31.93
2018-07-17T13:50:58.299Z,31.31
2018-07-17T13:53:28.116Z,31.01
2018-07-17T13:55:57.842Z,32.09
2018-07-17T13:58:27.687Z,30.66
2018-07-17T14:00:57.379Z,36.40
2018-07-17T14:03:27.255Z,37.05
2018-07-17T14:05:57.124Z,36.20
2018-07-17T14:08:26.972Z,33.57
2018-07-17T14:10:56.676Z,36.80
2018-07-17T14:13:26.827Z,36.71
2018-07-17T14:15:56.401Z,34.22
2018-07-17T14:18:26.160Z,33.46
2018-07-17T14:20:55.940Z,32.43
2018-07-17T14:23:25.649Z,31.07
2018-07-17T14:25:55.732Z,29.80
2018-07-17T14:28:26.005Z,30.83
2018-07-17T14:30:55.692Z,30.25
2018-07-17T14:33:25.626Z,29.40
2018-07-17T14:35:55.316Z,29.33
2018-07-17T14:38:25.052Z,27.63
2018-07-17T14:40:54.601Z,25.54
2018-07-17T14:43:24.691Z,23.98
2018-07-17T14:45:54.353Z,25.26
2018-07-17T14:48:24.192Z,25.35
2018-07-17T14:50:54.087Z,24.17
2018-07-17T14:53:23.788Z,21.82
2018-07-17T14:55:53.527Z,21.06
2018-07-17T14:58:23.372Z,21.36
2018-07-17T15:00:53.252Z,26.87
2018-07-17T15:03:23.043Z,22.42
2018-07-17T15:05:52.712Z,22.73
2018-07-17T15:08:22.531Z,23.03
2018-07-17T15:10:52.249Z,23.57
2018-07-17T15:13:22.084Z,20.71
2018-07-17T15:15:51.797Z,23.47
2018-07-17T15:18:21.624Z,30.18
2018-07-17T15:20:51.503Z,28.71
2018-07-17T15:23:21.690Z,25.60
2018-07-17T15:25:51.363Z,27.18
2018-07-17T15:28:21.209Z,30.06
2018-07-17T15:30:51.367Z,27.69
2018-07-17T15:33:21.230Z,27.77
2018-07-17T15:35:50.986Z,28.15
2018-07-17T15:38:20.916Z,30.48
2018-07-17T15:40:50.570Z,33.15
2018-07-17T15:43:20.458Z,35.08
2018-07-17T15:45:50.246Z,36.83
2018-07-17T15:48:20.157Z,37.07
2018-07-17T15:50:49.989Z,34.50
2018-07-17T15:53:20.250Z,38.63
2018-07-17T15:55:50.054Z,40.33
2018-07-17T15:58:19.930Z,38.88
2018-07-17T16:00:49.709Z,41.17
2018-07-17T16:03:19.810Z,39.61
2018-07-17T16:05:50.443Z,39.19
2018-07-17T16:08:21.514Z,39.84
2018-07-17T16:10:51.372Z,37.70
2018-07-17T16:13:21.399Z,42.61
2018-07-17T16:15:51.126Z,38.82
2018-07-17T16:18:20.931Z,37.60
2018-07-17T16:20:50.648Z,38.84
2018-07-17T16:23:20.630Z,44.34
2018-07-17T16:25:50.488Z,43.27
2018-07-17T16:28:20.307Z,44.38
2018-07-17T16:30:50.047Z,44.72
2018-07-17T16:33:19.889Z,44.59
2018-07-17T16:35:49.563Z,40.92
2018-07-17T16:38:19.429Z,41.33
2018-07-17T16:40:49.361Z,40.22
2018-07-17T16:43:19.230Z,39.66
2018-07-17T16:45:48.988Z,38.34
2018-07-17T16:48:18.808Z,38.79
2018-07-17T16:50:48.555Z,39.68
2018-07-17T16:53:19.009Z,36.68
2018-07-17T16:55:48.851Z,35.06
2018-07-17T16:58:18.670Z,35.28
2018-07-17T17:00:48.549Z,35.06
2018-07-17T17:03:18.472Z,36.14
2018-07-17T17:05:57.014Z,35.20
2018-07-17T17:08:27.834Z,33.78
2018-07-17T17:10:57.674Z,36.99
2018-07-17T17:13:27.419Z,34.42
2018-07-17T17:15:57.295Z,38.73
2018-07-17T17:18:27.275Z,36.56
2018-07-17T17:20:57.103Z,35.60
2018-07-17T17:23:26.857Z,37.61
2018-07-17T17:25:56.581Z,38.67
2018-07-17T17:28:26.442Z,36.78
2018-07-17T17:30:56.116Z,38.92
2018-07-17T17:33:25.859Z,39.93
2018-07-17T17:35:55.576Z,42.81
2018-07-17T17:38:25.396Z,41.62
2018-07-17T17:40:55.193Z,43.98
2018-07-17T17:43:24.977Z,44.32
2018-07-17T17:45:54.659Z,40.65
2018-07-17T17:48:24.638Z,43.64
2018-07-17T17:50:54.837Z,44.95
2018-07-17T17:53:24.637Z,42.48
2018-07-17T17:55:54.498Z,42.62
2018-07-17T17:58:24.320Z,44.87
2018-07-17T18:00:54.344Z,46.19
2018-07-17T18:03:24.257Z,47.70
2018-07-17T18:05:54.077Z,50.31
2018-07-17T18:08:23.797Z,51.93
2018-07-17T18:10:53.679Z,51.69
2018-07-17T18:13:23.418Z,52.77
2018-07-17T18:15:53.165Z,54.08
2018-07-17T18:18:23.817Z,55.90
2018-07-17T18:20:53.399Z,54.07
2018-07-17T18:23:23.243Z,56.73
2018-07-17T18:25:52.721Z,57.57
2018-07-17T18:28:22.268Z,56.03
2018-07-17T18:30:51.938Z,58.45
2018-07-17T18:33:22.076Z,58.74
2018-07-17T18:35:51.923Z,60.08
2018-07-17T18:38:21.768Z,61.15
2018-07-17T18:40:51.375Z,61.33
2018-07-17T18:43:22.015Z,62.58
2018-07-17T18:45:51.687Z,63.84
2018-07-17T18:48:21.529Z,62.72
2018-07-17T18:50:51.208Z,64.78
2018-07-17T18:53:21.127Z,65.14
2018-07-17T18:55:50.835Z,65.33
2018-07-17T18:58:20.779Z,62.89
2018-07-17T19:00:50.881Z,66.01
2018-07-17T19:03:20.796Z,66.21
2018-07-17T19:05:50.610Z,66.14
2018-07-17T19:08:20.689Z,65.27
2018-07-17T19:10:50.332Z,64.47
2018-07-17T19:13:20.911Z,64.41
2018-07-17T19:15:50.671Z,64.18
2018-07-17T19:18:21.367Z,64.34
2018-07-17T19:20:51.295Z,63.76
2018-07-17T19:23:23.177Z,63.87
2018-07-17T19:25:53.511Z,64.14
2018-07-17T19:28:25.096Z,63.80
2018-07-17T19:30:54.859Z,64.09
2018-07-17T19:33:25.528Z,62.60
2018-07-17T19:35:55.408Z,62.33
2018-07-17T19:38:26.329Z,63.02
2018-07-17T19:40:56.287Z,63.32
2018-07-17T19:43:26.854Z,63.74
2018-07-17T19:45:56.697Z,64.33
2018-07-17T19:48:28.967Z,64.39
2018-07-17T19:50:58.866Z,65.58
2018-07-17T19:53:29.543Z,65.49
2018-07-17T19:55:59.395Z,65.92
2018-07-17T19:58:29.246Z,66.66
2018-07-17T20:00:59.840Z,67.02
2018-07-17T20:03:29.833Z,66.50
2018-07-17T20:05:59.822Z,66.10
2018-07-17T20:08:29.922Z,66.74
2018-07-17T20:11:00.288Z,67.20
2018-07-17T20:13:30.024Z,67.79
2018-07-17T20:15:59.823Z,67.09
2018-07-17T20:18:29.492Z,67.08
2018-07-17T20:20:59.320Z,69.75
2018-07-17T20:23:29.010Z,70.83
2018-07-17T20:25:58.964Z,69.18
2018-07-17T20:28:28.890Z,69.68
2018-07-17T20:30:58.739Z,71.65
2018-07-17T20:33:28.620Z,69.17
2018-07-17T20:35:58.484Z,68.52
2018-07-17T20:38:28.878Z,68.01
2018-07-17T20:40:58.638Z,67.96
2018-07-17T20:43:28.619Z,67.08
2018-07-17T20:45:58.500Z,69.26
2018-07-17T20:48:28.182Z,69.99
2018-07-17T20:50:58.065Z,71.80
2018-07-17T20:53:27.771Z,70.87
2018-07-17T20:55:57.845Z,71.60
2018-07-17T20:58:27.631Z,70.57
2018-07-17T21:00:57.495Z,71.15
2018-07-17T21:03:27.157Z,73.62
2018-07-17T21:05:56.927Z,72.36
2018-07-17T21:08:28.344Z,71.79
2018-07-17T21:10:58.089Z,71.96
2018-07-17T21:13:27.805Z,71.19
2018-07-17T21:15:57.645Z,70.75
2018-07-17T21:18:27.452Z,72.64
2018-07-17T21:20:57.538Z,71.76
2018-07-17T21:23:27.452Z,71.18
2018-07-17T21:25:57.849Z,70.76
2018-07-17T21:28:28.031Z,71.48
2018-07-17T21:30:57.774Z,71.59
2018-07-17T21:33:27.450Z,71.18
2018-07-17T21:35:57.271Z,71.39
2018-07-17T21:38:27.109Z,72.10
2018-07-17T21:40:56.892Z,73.85
2018-07-17T21:43:26.554Z,73.21
2018-07-17T21:45:56.230Z,72.00
2018-07-17T21:48:25.894Z,72.17
2018-07-17T21:50:55.674Z,71.92
2018-07-17T21:53:25.398Z,71.81
2018-07-17T21:55:55.610Z,72.44
2018-07-17T21:58:25.271Z,73.50
2018-07-17T22:00:55.331Z,73.48
2018-07-17T22:03:25.305Z,73.82
2018-07-17T22:05:55.302Z,74.94
2018-07-17T22:08:25.066Z,73.98
2018-07-17T22:10:55.018Z,73.96
2018-07-17T22:13:24.871Z,74.66
2018-07-17T22:15:54.652Z,74.11
2018-07-17T22:18:24.416Z,74.08
2018-07-17T22:20:54.175Z,74.30
2018-07-17T22:23:23.909Z,75.90
2018-07-17T22:25:54.003Z,76.06
2018-07-17T22:28:23.755Z,75.19
2018-07-17T22:30:53.516Z,74.60
2018-07-17T22:33:23.388Z,75.29
2018-07-17T22:35:53.441Z,75.49
2018-07-17T22:38:23.115Z,74.80
2018-07-17T22:40:52.951Z,74.64
2018-07-17T22:43:22.767Z,75.93
2018-07-17T22:45:52.685Z,76.83
2018-07-17T22:48:22.387Z,74.90
2018-07-17T22:50:52.574Z,76.01
2018-07-17T22:53:22.294Z,75.58
2018-07-17T22:55:52.099Z,76.06
2018-07-17T22:58:21.823Z,74.37
2018-07-17T23:00:51.567Z,75.10
2018-07-17T23:03:21.370Z,75.34
2018-07-17T23:05:51.116Z,75.63
2018-07-17T23:08:20.666Z,75.51
2018-07-17T23:23:40.769Z,76.14
2018-07-17T23:26:10.720Z,75.47
2018-07-17T23:28:41.297Z,75.06
2018-07-17T23:31:11.202Z,75.51
2018-07-17T23:33:41.018Z,75.14
2018-07-17T23:36:10.973Z,75.53
2018-07-17T23:38:40.616Z,75.40
2018-07-17T23:41:10.563Z,77.24
2018-07-17T23:43:40.402Z,77.21
2018-07-17T23:46:10.369Z,77.71
2018-07-17T23:48:40.264Z,77.54
2018-07-17T23:51:11.409Z,75.62
2018-07-17T23:53:41.165Z,74.63
2018-07-17T23:56:12.578Z,74.60
2018-07-17T23:58:42.687Z,74.71
